createdAt,value
2023-05-03T00:02:40.541Z,102238.84
2023-05-03T00:05:26.545Z,102236.94
2023-05-03T00:08:10.108Z,102233.88
2023-05-03T00:11:00.516Z,102230.66
2023-05-03T00:13:44.074Z,102240.91
2023-05-03T00:16:27.649Z,102235.66
2023-05-03T00:19:24.238Z,102238.31
2023-05-03T00:22:14.621Z,102236.19
2023-05-03T00:25:00.201Z,102229.47
2023-05-03T00:27:43.799Z,102231.78
2023-05-03T00:30:27.573Z,102234.25
2023-05-03T00:33:11.134Z,102234.47
2023-05-03T00:35:54.652Z,102238.88
2023-05-03T00:38:38.731Z,102238.59
2023-05-03T00:41:23.333Z,102239.34
2023-05-03T00:44:07.155Z,102233.34
2023-05-03T00:46:52.667Z,102233.34
2023-05-03T00:49:36.946Z,102232.16
2023-05-03T00:52:20.631Z,102238.13
2023-05-03T00:55:05.121Z,102239.91
2023-05-03T00:57:48.633Z,102236.56
2023-05-03T01:00:33.205Z,102231.16
2023-05-03T01:03:17.530Z,102235.69
2023-05-03T01:06:09.344Z,102236.44
2023-05-03T01:09:21.865Z,102237.09
2023-05-03T01:12:12.160Z,102240.06
2023-05-03T01:15:15.655Z,102233.91
2023-05-03T01:18:09.967Z,102234.66
2023-05-03T01:20:53.900Z,102234.00
2023-05-03T01:23:59.804Z,102233.25
2023-05-03T01:26:43.348Z,102235.03
2023-05-03T01:29:26.904Z,102231.63
2023-05-03T01:32:23.799Z,102247.25
2023-05-03T01:35:29.146Z,102241.41
2023-05-03T01:38:14.370Z,102252.22
2023-05-03T01:41:04.973Z,102245.75
2023-05-03T01:43:49.717Z,102241.16
2023-05-03T01:46:33.424Z,102246.63
2023-05-03T01:49:16.963Z,102235.47
2023-05-03T01:52:00.721Z,102243.09
2023-05-03T01:54:44.553Z,102236.31
2023-05-03T01:57:29.210Z,102241.19
2023-05-03T02:00:14.623Z,102241.50
2023-05-03T02:02:58.598Z,102242.28
2023-05-03T02:05:42.596Z,102248.28
2023-05-03T02:08:26.190Z,102246.63
2023-05-03T02:11:09.706Z,102251.53
2023-05-03T02:13:53.209Z,102251.78
2023-05-03T02:16:36.924Z,102248.56
2023-05-03T02:19:20.437Z,102252.59
2023-05-03T02:22:03.957Z,102249.31
2023-05-03T02:24:47.536Z,102260.72
2023-05-03T02:27:31.282Z,102253.38
2023-05-03T02:30:14.835Z,102256.84
2023-05-03T02:33:00.303Z,102260.13
2023-05-03T02:35:44.521Z,102263.84
2023-05-03T02:38:28.196Z,102264.50
2023-05-03T02:41:11.731Z,102267.38
2023-05-03T02:43:55.441Z,102267.97
2023-05-03T02:46:42.260Z,102272.25
2023-05-03T02:49:26.391Z,102279.09
2023-05-03T02:52:09.914Z,102280.38
2023-05-03T02:54:53.564Z,102273.38
2023-05-03T02:57:37.396Z,102282.53
2023-05-03T03:00:22.632Z,102283.31
2023-05-03T03:03:06.229Z,102289.44
2023-05-03T03:05:50.323Z,102281.91
2023-05-03T03:08:34.108Z,102281.28
2023-05-03T03:11:19.953Z,102288.72
2023-05-03T03:14:04.354Z,102288.34
2023-05-03T03:16:48.035Z,102287.84
2023-05-03T03:19:31.621Z,102285.69
2023-05-03T03:22:15.199Z,102293.19
2023-05-03T03:24:58.772Z,102298.25
2023-05-03T03:27:42.510Z,102301.47
2023-05-03T03:30:28.539Z,102297.03
2023-05-03T03:33:25.564Z,102298.88
2023-05-03T03:36:13.624Z,102302.69
2023-05-03T03:39:00.562Z,102304.44
2023-05-03T03:41:44.688Z,102306.50
2023-05-03T03:44:28.322Z,102308.06
2023-05-03T03:47:11.975Z,102316.16
2023-05-03T03:49:55.782Z,102318.72
2023-05-03T03:52:39.425Z,102318.28
2023-05-03T03:55:23.655Z,102316.09
2023-05-03T03:58:10.119Z,102313.28
2023-05-03T04:00:54.593Z,102317.94
2023-05-03T04:03:40.690Z,102326.34
2023-05-03T04:06:24.587Z,102328.16
2023-05-03T04:09:09.783Z,102334.56
2023-05-03T04:11:54.238Z,102337.78
2023-05-03T04:14:38.419Z,102336.56
2023-05-03T04:17:21.944Z,102337.88
2023-05-03T04:20:11.339Z,102349.53
2023-05-03T04:22:57.054Z,102353.72
2023-05-03T04:25:48.910Z,102360.47
2023-05-03T04:28:34.408Z,102355.78
2023-05-03T04:31:22.193Z,102352.53
2023-05-03T04:34:10.771Z,102368.41
2023-05-03T04:36:54.908Z,102353.03
2023-05-03T04:39:39.251Z,102359.28
2023-05-03T04:42:23.118Z,102373.97
2023-05-03T04:45:09.812Z,102380.16
2023-05-03T04:47:53.619Z,102370.34
2023-05-03T04:50:37.205Z,102371.91
2023-05-03T04:53:23.225Z,102371.78
2023-05-03T04:56:16.507Z,102375.53
2023-05-03T04:59:00.779Z,102377.19
2023-05-03T05:01:44.427Z,102383.84
2023-05-03T05:04:28.392Z,102385.72
2023-05-03T05:07:13.364Z,102387.56
2023-05-03T05:09:58.031Z,102383.56
2023-05-03T05:12:43.074Z,102382.22
2023-05-03T05:15:26.622Z,102383.00
2023-05-03T05:18:10.578Z,102381.28
2023-05-03T05:20:55.813Z,102385.16
2023-05-03T05:23:39.905Z,102385.44
2023-05-03T05:26:23.915Z,102383.84
2023-05-03T05:29:07.583Z,102390.09
2023-05-03T05:31:53.244Z,102397.78
2023-05-03T05:34:45.374Z,102398.38
2023-05-03T05:37:32.328Z,102390.06
2023-05-03T05:40:19.530Z,102397.91
2023-05-03T05:43:08.339Z,102395.78
2023-05-03T05:45:53.634Z,102404.78
2023-05-03T05:48:37.795Z,102409.63
2023-05-03T05:51:21.438Z,102410.75
2023-05-03T05:54:05.349Z,102409.44
2023-05-03T05:56:48.893Z,102406.09
2023-05-03T05:59:32.592Z,102414.53
2023-05-03T06:02:18.139Z,102423.53
2023-05-03T06:05:05.643Z,102411.88
2023-05-03T06:07:51.201Z,102415.94
2023-05-03T06:10:38.178Z,102414.56
2023-05-03T06:13:23.083Z,102416.81
2023-05-03T06:16:07.849Z,102414.13
2023-05-03T06:18:51.505Z,102422.00
2023-05-03T06:21:35.018Z,102422.28
2023-05-03T06:24:21.942Z,102425.00
2023-05-03T06:27:08.535Z,102432.06
2023-05-03T06:29:52.377Z,102425.53
2023-05-03T06:32:35.956Z,102424.97
2023-05-03T06:35:22.016Z,102425.56
2023-05-03T06:38:06.212Z,102427.69
2023-05-03T06:40:50.891Z,102427.72
2023-05-03T06:43:34.440Z,102424.44
2023-05-03T06:46:20.615Z,102423.31
2023-05-03T06:49:04.468Z,102433.09
2023-05-03T06:51:48.109Z,102426.63
2023-05-03T06:54:31.692Z,102423.28
2023-05-03T06:57:15.253Z,102425.22
2023-05-03T06:59:59.139Z,102437.16
2023-05-03T07:02:42.914Z,102436.84
2023-05-03T07:05:26.874Z,102427.25
2023-05-03T07:08:10.430Z,102437.44
2023-05-03T07:10:53.935Z,102428.97
2023-05-03T07:13:37.451Z,102433.50
2023-05-03T07:16:22.135Z,102430.97
2023-05-03T07:19:05.683Z,102437.94
2023-05-03T07:21:49.213Z,102439.31
2023-05-03T07:24:32.807Z,102441.97
2023-05-03T07:27:16.423Z,102434.84
2023-05-03T07:30:00.464Z,102438.88
2023-05-03T07:32:44.220Z,102444.38
2023-05-03T07:35:28.642Z,102431.38
2023-05-03T07:38:12.726Z,102431.50
2023-05-03T07:40:56.568Z,102433.94
2023-05-03T07:43:40.147Z,102433.78
2023-05-03T07:46:23.912Z,102426.66
2023-05-03T07:49:07.569Z,102434.94
2023-05-03T07:51:51.382Z,102430.41
2023-05-03T07:54:34.963Z,102426.50
2023-05-03T07:57:18.984Z,102422.22
2023-05-03T08:00:04.882Z,102424.34
2023-05-03T08:02:58.809Z,102419.13
2023-05-03T08:05:43.785Z,102423.78
2023-05-03T08:08:27.975Z,102426.75
2023-05-03T08:11:12.068Z,102424.38
2023-05-03T08:13:55.805Z,102427.72
2023-05-03T08:16:40.667Z,102419.38
2023-05-03T08:19:24.326Z,102419.66
2023-05-03T08:22:08.092Z,102416.22
2023-05-03T08:24:52.873Z,102415.94
2023-05-03T08:27:37.674Z,102422.97
2023-05-03T08:30:26.094Z,102410.09
2023-05-03T08:33:12.526Z,102413.41
2023-05-03T08:35:56.412Z,102418.72
2023-05-03T08:38:41.399Z,102409.09
2023-05-03T08:41:35.295Z,102418.69
2023-05-03T08:44:29.283Z,102421.81
2023-05-03T08:47:18.679Z,102415.06
2023-05-03T08:50:05.839Z,102425.13
2023-05-03T08:52:49.776Z,102433.53
2023-05-03T08:55:33.577Z,102425.09
2023-05-03T08:58:27.744Z,102420.84
2023-05-03T09:01:11.843Z,102430.59
2023-05-03T09:03:55.956Z,102431.94
2023-05-03T09:06:40.157Z,102431.63
2023-05-03T09:09:32.482Z,102421.44
2023-05-03T09:12:41.406Z,102414.44
2023-05-03T09:15:26.528Z,102425.00
2023-05-03T09:18:16.646Z,102422.41
2023-05-03T09:21:00.390Z,102427.25
2023-05-03T09:23:44.019Z,102433.56
2023-05-03T09:26:34.674Z,102425.06
2023-05-03T09:29:32.732Z,102429.88
2023-05-03T09:32:17.661Z,102435.72
2023-05-03T09:35:10.759Z,102424.34
2023-05-03T09:37:54.423Z,102430.25
2023-05-03T09:40:48.249Z,102430.22
2023-05-03T09:43:32.313Z,102422.38
2023-05-03T09:46:16.276Z,102430.69
2023-05-03T09:48:59.947Z,102429.91
2023-05-03T09:51:44.264Z,102416.81
2023-05-03T09:54:31.477Z,102409.97
2023-05-03T09:57:15.462Z,102420.59
2023-05-03T09:59:59.188Z,102409.31
2023-05-03T10:02:43.138Z,102420.06
2023-05-03T10:05:31.120Z,102415.84
2023-05-03T10:08:46.629Z,102413.16
2023-05-03T10:11:30.407Z,102418.53
2023-05-03T10:14:14.995Z,102406.94
2023-05-03T10:17:09.094Z,102415.59
2023-05-03T10:20:10.128Z,102416.69
2023-05-03T10:23:06.275Z,102417.41
2023-05-03T10:26:09.782Z,102407.94
2023-05-03T10:28:54.405Z,102406.19
2023-05-03T10:31:48.811Z,102408.59
2023-05-03T10:34:40.501Z,102399.59
2023-05-03T10:37:28.290Z,102398.72
2023-05-03T10:40:17.348Z,102408.69
2023-05-03T10:43:01.049Z,102400.34
2023-05-03T10:45:45.202Z,102397.25
2023-05-03T10:48:30.683Z,102391.50
2023-05-03T10:51:30.945Z,102402.47
2023-05-03T10:54:15.172Z,102391.72
2023-05-03T10:56:59.903Z,102392.31
2023-05-03T10:59:49.289Z,102392.22
2023-05-03T11:03:04.117Z,102383.31
2023-05-03T11:05:49.168Z,102383.56
2023-05-03T11:08:37.837Z,102381.41
2023-05-03T11:11:24.236Z,102392.19
2023-05-03T11:14:09.475Z,102374.75
2023-05-03T11:16:53.084Z,102376.22
2023-05-03T11:19:36.746Z,102379.84
2023-05-03T11:22:20.513Z,102371.47
2023-05-03T11:25:04.560Z,102380.28
2023-05-03T11:27:48.338Z,102372.47
2023-05-03T11:30:35.299Z,102379.53
2023-05-03T11:33:19.028Z,102378.44
2023-05-03T11:36:04.363Z,102367.34
2023-05-03T11:38:47.991Z,102373.47
2023-05-03T11:41:31.645Z,102371.44
2023-05-03T11:44:17.647Z,102378.25
2023-05-03T11:47:02.737Z,102371.84
2023-05-03T11:49:57.992Z,102352.50
2023-05-03T11:52:42.124Z,102347.69
2023-05-03T11:55:26.556Z,102348.84
2023-05-03T11:58:17.857Z,102351.47
2023-05-03T12:01:02.101Z,102349.84
2023-05-03T12:03:49.433Z,102353.97
2023-05-03T12:06:35.966Z,102354.75
2023-05-03T12:09:22.561Z,102360.72
2023-05-03T12:12:10.059Z,102355.44
2023-05-03T12:15:00.516Z,102347.16
2023-05-03T12:17:48.824Z,102356.09
2023-05-03T12:21:28.416Z,102348.53
2023-05-03T12:23:37.356Z,102356.72
2023-05-03T12:26:21.689Z,102350.00
2023-05-03T12:29:06.774Z,102350.59
2023-05-03T12:31:50.636Z,102341.84
2023-05-03T12:34:36.778Z,102335.38
2023-05-03T12:37:22.521Z,102336.56
2023-05-03T12:40:31.789Z,102334.47
2023-05-03T12:43:11.496Z,102335.28
2023-05-03T12:46:24.016Z,102327.13
2023-05-03T12:49:00.692Z,102326.84
2023-05-03T12:51:50.929Z,102332.28
2023-05-03T12:54:48.945Z,102332.16
2023-05-03T12:57:36.923Z,102327.34
2023-05-03T13:00:25.380Z,102326.03
2023-05-03T13:03:20.718Z,102319.25
2023-05-03T13:06:12.700Z,102316.25
2023-05-03T13:09:02.763Z,102321.31
2023-05-03T13:11:48.284Z,102323.75
2023-05-03T13:14:32.788Z,102312.75
2023-05-03T13:17:17.636Z,102316.03
2023-05-03T13:20:01.496Z,102321.78
2023-05-03T13:22:48.733Z,102312.50
2023-05-03T13:25:32.453Z,102302.69
2023-05-03T13:28:20.122Z,102303.38
2023-05-03T13:31:03.758Z,102304.00
2023-05-03T13:33:48.205Z,102298.66
2023-05-03T13:36:33.574Z,102292.84
2023-05-03T13:39:17.205Z,102291.22
2023-05-03T13:42:01.159Z,102281.16
2023-05-03T13:44:47.468Z,102282.00
2023-05-03T13:47:52.952Z,102273.38
2023-05-03T13:50:37.220Z,102268.88
2023-05-03T13:53:21.033Z,102269.09
2023-05-03T13:56:06.174Z,102263.31
2023-05-03T13:58:49.789Z,102259.63
2023-05-03T14:01:33.374Z,102266.16
2023-05-03T14:04:17.070Z,102255.53
2023-05-03T14:07:03.291Z,102252.47
2023-05-03T14:09:47.195Z,102245.78
2023-05-03T14:12:33.977Z,102253.75
2023-05-03T14:15:17.761Z,102254.88
2023-05-03T14:18:04.905Z,102249.50
2023-05-03T14:20:50.750Z,102248.56
2023-05-03T14:23:34.347Z,102241.00
2023-05-03T14:26:19.369Z,102242.94
2023-05-03T14:29:02.923Z,102242.50
2023-05-03T14:31:46.664Z,102245.22
2023-05-03T14:34:30.348Z,102237.03
2023-05-03T14:37:13.932Z,102239.56
2023-05-03T14:39:57.917Z,102238.66
2023-05-03T14:42:41.727Z,102237.81
2023-05-03T14:45:25.307Z,102238.16
2023-05-03T14:48:08.933Z,102242.47
2023-05-03T14:50:54.965Z,102235.34
2023-05-03T14:53:39.012Z,102236.78
2023-05-03T14:56:22.717Z,102231.22
2023-05-03T14:59:07.158Z,102242.13
2023-05-03T15:01:52.637Z,102236.75
2023-05-03T15:04:37.969Z,102227.16
2023-05-03T15:07:21.497Z,102238.28
2023-05-03T15:10:06.270Z,102227.88
2023-05-03T15:12:50.241Z,102219.34
2023-05-03T15:15:33.781Z,102221.53
2023-05-03T15:18:20.397Z,102224.50
2023-05-03T15:21:04.499Z,102229.53
2023-05-03T15:23:51.989Z,102224.69
2023-05-03T15:26:36.821Z,102223.19
2023-05-03T15:29:20.526Z,102222.06
2023-05-03T15:32:04.339Z,102219.88
2023-05-03T15:34:47.889Z,102219.66
2023-05-03T15:37:37.628Z,102220.34
2023-05-03T15:40:23.761Z,102215.75
2023-05-03T15:43:08.809Z,102206.56
2023-05-03T15:45:55.882Z,102208.19
2023-05-03T15:48:39.469Z,102213.94
2023-05-03T15:51:23.163Z,102208.72
2023-05-03T15:54:07.295Z,102213.84
2023-05-03T15:56:53.931Z,102201.72
2023-05-03T15:59:38.179Z,102206.56
2023-05-03T16:02:21.841Z,102201.38
2023-05-03T16:05:05.747Z,102200.09
2023-05-03T16:07:49.627Z,102197.22
2023-05-03T16:10:34.050Z,102200.22
2023-05-03T16:13:18.708Z,102199.66
2023-05-03T16:16:03.658Z,102201.13
2023-05-03T16:18:47.737Z,102189.19
2023-05-03T16:21:34.130Z,102186.28
2023-05-03T16:24:17.724Z,102192.09
2023-05-03T16:27:02.304Z,102189.56
2023-05-03T16:29:45.956Z,102180.75
2023-05-03T16:32:29.927Z,102184.72
2023-05-03T16:35:13.759Z,102185.41
2023-05-03T16:37:57.320Z,102184.19
2023-05-03T16:40:42.590Z,102189.72
2023-05-03T16:43:27.335Z,102180.72
2023-05-03T16:46:10.921Z,102177.41
2023-05-03T16:48:54.684Z,102175.94
2023-05-03T16:51:39.782Z,102189.78
2023-05-03T16:54:23.894Z,102173.38
2023-05-03T16:57:07.493Z,102184.88
2023-05-03T16:59:51.015Z,102176.69
2023-05-03T17:02:41.818Z,102181.53
2023-05-03T17:05:32.902Z,102175.34
2023-05-03T17:08:16.629Z,102185.72
2023-05-03T17:11:11.814Z,102180.06
2023-05-03T17:13:55.621Z,102177.91
2023-05-03T17:16:42.398Z,102183.00
2023-05-03T17:19:26.825Z,102180.06
2023-05-03T17:22:10.560Z,102181.91
2023-05-03T17:24:55.374Z,102180.41
2023-05-03T17:27:39.004Z,102189.50
2023-05-03T17:30:24.289Z,102186.91
2023-05-03T17:33:07.989Z,102185.56
2023-05-03T17:35:52.785Z,102191.84
2023-05-03T17:38:37.204Z,102192.94
2023-05-03T17:41:21.469Z,102188.72
2023-05-03T17:44:05.325Z,102191.53
2023-05-03T17:46:49.068Z,102188.88
2023-05-03T17:49:33.878Z,102188.72
2023-05-03T17:52:17.548Z,102184.78
2023-05-03T17:55:01.289Z,102181.16
2023-05-03T17:57:45.872Z,102189.94
2023-05-03T18:00:29.623Z,102194.66
2023-05-03T18:03:14.776Z,102187.78
2023-05-03T18:05:58.474Z,102189.69
2023-05-03T18:08:42.794Z,102190.50
2023-05-03T18:11:26.494Z,102186.88
2023-05-03T18:14:10.020Z,102197.63
2023-05-03T18:16:55.381Z,102193.72
2023-05-03T18:19:43.455Z,102199.75
2023-05-03T18:22:27.846Z,102200.91
2023-05-03T18:25:11.468Z,102202.00
2023-05-03T18:27:55.125Z,102209.88
2023-05-03T18:30:38.739Z,102204.47
2023-05-03T18:33:22.555Z,102210.25
2023-05-03T18:36:11.809Z,102202.91
2023-05-03T18:38:55.417Z,102211.75
2023-05-03T18:41:38.955Z,102221.00
2023-05-03T18:44:25.455Z,102210.84
2023-05-03T18:47:10.478Z,102202.91
2023-05-03T18:49:54.155Z,102208.25
2023-05-03T18:52:37.890Z,102211.00
2023-05-03T18:55:21.444Z,102217.94
2023-05-03T18:58:05.513Z,102220.06
2023-05-03T19:00:49.366Z,102225.84
2023-05-03T19:03:33.370Z,102227.47
2023-05-03T19:06:17.064Z,102228.63
2023-05-03T19:09:00.593Z,102227.28
2023-05-03T19:11:44.241Z,102226.50
2023-05-03T19:14:27.863Z,102224.38
2023-05-03T19:17:11.808Z,102232.19
2023-05-03T19:19:55.301Z,102234.69
2023-05-03T19:22:38.925Z,102234.78
2023-05-03T19:25:22.601Z,102228.81
2023-05-03T19:28:07.997Z,102227.78
2023-05-03T19:30:52.151Z,102239.44
2023-05-03T19:33:36.861Z,102242.16
2023-05-03T19:36:20.458Z,102242.50
2023-05-03T19:39:04.131Z,102233.63
2023-05-03T19:41:47.747Z,102229.28
2023-05-03T19:44:31.503Z,102230.25
2023-05-03T19:47:15.134Z,102234.53
2023-05-03T19:49:58.727Z,102232.00
2023-05-03T19:52:42.555Z,102228.91
2023-05-03T19:55:26.130Z,102229.25
2023-05-03T19:58:09.670Z,102223.91
2023-05-03T20:00:54.293Z,102229.06
2023-05-03T20:03:38.145Z,102227.34
2023-05-03T20:06:22.383Z,102223.66
2023-05-03T20:09:06.088Z,102225.31
2023-05-03T20:11:59.146Z,102224.66
2023-05-03T20:14:42.791Z,102232.47
2023-05-03T20:17:26.387Z,102229.31
2023-05-03T20:20:11.442Z,102230.34
2023-05-03T20:22:55.065Z,102229.34
2023-05-03T20:25:38.893Z,102223.78
2023-05-03T20:28:23.408Z,102223.56
2023-05-03T20:31:07.127Z,102222.47
2023-05-03T20:33:50.849Z,102229.88
2023-05-03T20:36:34.499Z,102230.78
2023-05-03T20:39:18.219Z,102229.75
2023-05-03T20:42:02.504Z,102236.16
2023-05-03T20:44:46.754Z,102230.06
2023-05-03T20:47:30.850Z,102227.63
2023-05-03T20:50:14.646Z,102239.47
2023-05-03T20:52:58.243Z,102233.03
2023-05-03T20:55:41.935Z,102239.97
2023-05-03T20:58:25.687Z,102232.25
2023-05-03T21:01:09.456Z,102234.75
2023-05-03T21:03:53.029Z,102226.25
2023-05-03T21:06:38.505Z,102224.06
2023-05-03T21:09:24.199Z,102222.28
2023-05-03T21:12:09.866Z,102215.25
2023-05-03T21:14:53.625Z,102223.75
2023-05-03T21:17:37.792Z,102222.19
2023-05-03T21:20:22.531Z,102220.50
2023-05-03T21:23:08.970Z,102225.47
2023-05-03T21:25:55.816Z,102221.22
2023-05-03T21:28:42.360Z,102223.03
2023-05-03T21:31:27.329Z,102225.47
2023-05-03T21:34:10.912Z,102226.69
2023-05-03T21:36:54.707Z,102222.94
2023-05-03T21:39:38.286Z,102230.63
2023-05-03T21:42:22.482Z,102226.25
2023-05-03T21:45:07.350Z,102220.50
2023-05-03T21:47:51.277Z,102231.34
2023-05-03T21:50:39.433Z,102229.31
2023-05-03T21:53:23.180Z,102228.31
2023-05-03T21:56:07.232Z,102227.22
2023-05-03T21:58:50.818Z,102226.63
2023-05-03T22:01:34.476Z,102225.41
2023-05-03T22:04:18.013Z,102215.44
2023-05-03T22:07:01.761Z,102220.19
2023-05-03T22:09:49.153Z,102214.28
2023-05-03T22:12:33.744Z,102218.22
2023-05-03T22:15:17.664Z,102217.34
2023-05-03T22:18:01.450Z,102216.97
2023-05-03T22:20:45.088Z,102217.94
2023-05-03T22:23:28.884Z,102216.47
2023-05-03T22:26:12.690Z,102218.59
2023-05-03T22:28:56.643Z,102213.38
2023-05-03T22:31:40.422Z,102221.41
2023-05-03T22:34:24.082Z,102218.66
2023-05-03T22:37:07.827Z,102222.31
2023-05-03T22:39:51.519Z,102223.28
2023-05-03T22:42:35.453Z,102228.38
2023-05-03T22:45:19.122Z,102220.28
2023-05-03T22:48:02.805Z,102220.25
2023-05-03T22:50:46.772Z,102216.88
2023-05-03T22:53:30.625Z,102222.25
2023-05-03T22:56:14.589Z,102215.81
2023-05-03T22:58:58.176Z,102217.44
2023-05-03T23:01:43.346Z,102213.34
2023-05-03T23:04:26.913Z,102217.72
2023-05-03T23:07:13.284Z,102213.22
2023-05-03T23:10:05.468Z,102211.06
2023-05-03T23:12:50.205Z,102215.16
2023-05-03T23:15:34.320Z,102219.53
2023-05-03T23:18:18.447Z,102209.34
2023-05-03T23:21:02.344Z,102202.88
2023-05-03T23:23:47.329Z,102214.56
2023-05-03T23:26:30.863Z,102215.97
2023-05-03T23:29:14.843Z,102211.84
2023-05-03T23:31:59.023Z,102218.53
2023-05-03T23:34:43.798Z,102210.16
2023-05-03T23:37:27.899Z,102211.22
2023-05-03T23:40:13.252Z,102202.53
2023-05-03T23:42:56.826Z,102203.78
2023-05-03T23:45:40.472Z,102199.34
2023-05-03T23:48:24.082Z,102200.91
2023-05-03T23:51:07.846Z,102201.78
2023-05-03T23:53:51.641Z,102205.75
2023-05-03T23:56:35.397Z,102211.44
2023-05-03T23:59:18.963Z,102211.09
